Date,TemperatureHighF,TemperatureAvgF,TemperatureLowF,DewpointHighF,DewpointAvgF,DewpointLowF,HumidityHigh,HumidityAvg,HumidityLow,PressureMaxIn,PressureMinIn,WindSpeedMaxMPH,WindSpeedAvgMPH,GustSpeedMaxMPH,PrecipitationSumIn
2013-2-1,64.0,48.0,38.1,43.7,38.9,31.0,95,73,42,30.40,30.29,13,1,13,0.00
2013-2-2,63.6,46.8,30.8,48.7,39.3,27.7,94,77,51,30.37,30.17,9,0,9,0.00
2013-2-3,69.5,54.0,41.6,52.3,43.5,35.7,97,73,30,30.25,30.11,11,0,11,0.00
2013-2-4,67.3,53.4,40.4,53.9,47.5,38.8,100,82,54,30.12,29.97,5,0,5,0.00
2013-2-5,68.2,59.8,54.0,63.7,57.7,52.6,97,93,83,30.03,29.95,6,0,6,0.35
2013-2-6,69.8,59.7,55.1,61.9,57.2,53.4,99,92,74,30.15,30.02,7,0,7,0.01
2013-2-7,77.7,64.2,52.5,64.0,59.7,50.7,98,87,56,30.03,29.77,19,2,19,1.77
2013-2-8,71.4,58.5,49.4,63.4,54.8,48.3,97,88,65,30.14,29.93,18,1,18,0.00
2013-2-9,65.9,56.8,47.0,56.8,52.0,44.8,93,84,70,30.25,30.13,10,0,10,0.00
2013-2-10,69.9,64.8,53.6,68.2,62.9,51.9,97,93,88,30.14,29.97,15,1,15,0.00
2013-2-11,78.8,65.8,59.8,73.6,63.9,56.9,98,94,74,30.09,30.00,18,1,18,0.27
2013-2-12,70.5,64.4,57.9,69.5,62.9,56.1,97,95,90,30.04,29.77,17,1,17,0.23
2013-2-13,70.1,56.4,46.9,68.9,53.5,45.7,96,90,69,30.05,29.77,18,1,18,0.21
2013-2-14,59.9,46.4,38.0,46.6,42.1,36.1,96,86,58,30.16,30.03,11,0,11,0.00
2013-2-15,65.5,49.1,35.6,50.1,42.2,34.6,100,80,46,30.16,30.03,10,0,10,0.01
2013-2-16,56.2,47.6,31.2,46.6,32.8,22.0,94,59,31,30.28,30.06,21,2,21,0.00
2013-2-17,55.0,39.5,26.9,35.4,29.2,23.8,92,70,32,30.40,30.28,9,0,10,0.00
2013-2-18,65.5,54.8,34.6,56.8,46.3,32.8,96,75,52,30.30,30.04,16,2,16,0.00
2013-2-19,69.7,59.7,39.0,61.8,51.7,35.1,96,77,38,30.20,29.99,16,2,16,0.63
2013-2-20,58.8,45.4,36.0,39.0,33.1,27.4,92,66,34,30.26,30.08,12,1,12,0.00
2013-2-21,68.3,57.0,37.8,64.3,51.8,35.6,95,83,66,30.09,29.90,13,0,13,0.00
2013-2-22,69.4,67.1,65.7,68.8,66.1,64.4,98,97,95,29.98,29.85,12,0,12,1.55
2013-2-23,69.6,61.5,57.7,69.0,60.7,56.7,98,97,96,29.94,29.77,11,1,11,0.25
2013-2-24,71.0,60.6,52.3,60.0,56.6,51.2,99,88,61,29.98,29.81,11,1,11,1.89
2013-2-25,67.9,63.0,59.9,65.7,61.6,58.7,98,96,84,29.86,29.53,20,2,20,3.25
2013-2-26,66.1,56.9,51.3,65.2,49.0,44.2,97,75,61,29.92,29.53,25,2,25,0.01
2013-2-27,64.2,53.2,45.2,48.5,45.1,42.1,96,76,49,30.03,29.91,11,0,11,0.00
2013-2-28,59.5,51.5,44.0,48.2,40.1,34.3,95,67,41,30.08,29.96,17,1,17,0.00